Terminal Aerodrome Forecast
Issued by NWS

Home | Current Version | Previous Version | Text Only | Print | Product List | Glossary On
Versions: 1 2 3 4 5 6 7 8 9 10 11 12 13 14 15 16 17 18
000
FTUS44 KEPZ 221120
TAFTCS
TAF
KTCS 221120Z 2212/2312 20010KT P6SM BKN080
     FM221800 23016G26KT P6SM SCT100
     FM230300 28008KT P6SM SKC
      AMD LTD TO WIND VIS AND WX=

USA.gov is the U.S. government's official web portal to all federal, state and local government web resources and services.